Time;durP1;ratioP1;P1;durP2;ratioP2;P2;SDS_P1;SDS_P2;PMS_P1;PMS_P2;Temp;Humidity;BMP_temperature;BMP_pressure;BME280_temperature;BME280_humidity;BME280_pressure;Samples;Min_cycle;Max_cycle;Signal;HPM_P1;HPM_P2
2021/11/04 00:00:01;;;;;;;8.77;5.30;;;;;;;6.41;100.00;97455.44;4958159;28;20114;-79
2021/11/04 00:02:33;;;;;;;8.27;5.22;;;;;;;6.27;100.00;97468.03;4948718;28;20059;-79
2021/11/04 00:05:05;;;;;;;7.47;4.85;;;;;;;6.28;100.00;97472.38;4948097;29;20051;-79
2021/11/04 00:07:33;;;;;;;6.85;4.90;;;;;;;6.37;100.00;97472.03;4953801;29;20062;-79
2021/11/04 00:10:01;;;;;;;13.50;5.57;;;;;;;6.41;100.00;97485.13;4953389;28;20388;-79
2021/11/04 00:12:28;;;;;;;8.82;5.25;;;;;;;6.46;100.00;97486.19;4963077;28;20050;-79
2021/11/04 00:14:59;;;;;;;6.80;4.97;;;;;;;6.28;100.00;97488.56;4954356;29;20057;-79
2021/11/04 00:17:31;;;;;;;7.28;4.75;;;;;;;6.30;100.00;97478.44;4950358;29;20047;-79
2021/11/04 00:19:57;;;;;;;7.07;5.03;;;;;;;6.22;100.00;97448.88;4947270;29;20132;-79
2021/11/04 00:22:27;;;;;;;6.68;5.25;;;;;;;6.21;100.00;97434.56;4950198;28;20055;-79
2021/11/04 00:24:53;;;;;;;7.40;4.90;;;;;;;6.42;100.00;97447.13;4949745;28;20051;-79
2021/11/04 00:27:20;;;;;;;9.73;5.88;;;;;;;6.37;100.00;97438.81;4952899;28;20513;-79
2021/11/04 00:29:47;;;;;;;9.98;5.38;;;;;;;6.32;100.00;97434.03;4957434;28;20062;-79
2021/11/04 00:32:16;;;;;;;7.68;5.22;;;;;;;6.27;100.00;97419.47;4952918;28;20054;-79
2021/11/04 00:34:43;;;;;;;5.45;4.18;;;;;;;6.30;100.00;97413.66;4951943;28;20043;-79
2021/11/04 00:37:10;;;;;;;8.05;4.70;;;;;;;6.30;100.00;97414.47;4949100;29;20493;-79
2021/11/04 00:39:37;;;;;;;8.52;4.75;;;;;;;6.38;100.00;97426.97;4958649;28;20093;-79
2021/11/04 00:42:04;;;;;;;7.47;4.70;;;;;;;6.38;100.00;97419.72;4952769;28;20058;-79
2021/11/04 00:44:31;;;;;;;8.77;5.25;;;;;;;6.36;100.00;97424.47;4957214;28;20058;-80
2021/11/04 00:46:58;;;;;;;5.95;4.50;;;;;;;6.48;100.00;97435.53;4954854;28;20047;-80
2021/11/04 00:49:26;;;;;;;6.82;4.82;;;;;;;6.47;100.00;97435.72;4958593;28;20058;-80
2021/11/04 00:51:54;;;;;;;7.55;4.93;;;;;;;6.41;100.00;97429.25;4957000;28;20055;-80
2021/11/04 00:54:21;;;;;;;6.65;4.75;;;;;;;6.33;100.00;97429.44;4958371;28;20055;-80
2021/11/04 00:56:48;;;;;;;7.18;4.93;;;;;;;6.43;100.00;97461.44;4955803;28;20052;-80
2021/11/04 00:59:15;;;;;;;8.20;4.75;;;;;;;6.35;100.00;97452.50;4955571;28;20042;-80
2021/11/04 01:01:42;;;;;;;6.45;4.10;;;;;;;6.36;100.00;97473.06;4950611;28;20047;-80
2021/11/04 01:04:08;;;;;;;5.75;3.60;;;;;;;6.32;100.00;97471.81;4958633;28;20484;-80
2021/11/04 01:06:37;;;;;;;8.65;4.43;;;;;;;6.35;100.00;97470.56;4967256;28;20047;-80
2021/11/04 01:09:04;;;;;;;5.53;4.22;;;;;;;6.34;100.00;97477.00;4954333;28;20051;-80
2021/11/04 01:11:30;;;;;;;9.57;4.75;;;;;;;6.30;100.00;97475.72;4955087;28;20047;-80
2021/11/04 01:13:57;;;;;;;8.75;4.40;;;;;;;6.37;100.00;97496.31;4953921;28;20055;-80
2021/11/04 01:16:24;;;;;;;8.40;5.00;;;;;;;6.43;100.00;97497.41;4953585;28;20047;-79
2021/11/04 01:18:51;;;;;;;7.68;4.85;;;;;;;6.46;100.00;97497.00;4960176;28;20046;-79
2021/11/04 01:21:18;;;;;;;6.65;4.35;;;;;;;6.49;100.00;97496.59;4963419;28;20084;-79
2021/11/04 01:23:46;;;;;;;6.55;4.13;;;;;;;6.41;100.00;97494.03;4950161;28;20072;-79
2021/11/04 01:26:12;;;;;;;7.55;4.32;;;;;;;6.48;100.00;97497.63;4957345;28;20055;-78
2021/11/04 01:28:39;;;;;;;7.43;4.25;;;;;;;6.46;100.00;97496.16;4953976;29;20051;-78
2021/11/04 01:31:06;;;;;;;7.93;4.70;;;;;;;6.36;100.00;97489.25;4949422;29;20084;-79
2021/11/04 01:33:33;;;;;;;5.85;4.05;;;;;;;6.42;100.00;97498.41;4964873;28;20047;-79
2021/11/04 01:36:00;;;;;;;4.53;3.47;;;;;;;6.36;100.00;97494.66;4970863;28;20059;-78
2021/11/04 01:38:27;;;;;;;7.25;4.57;;;;;;;6.44;100.00;97484.72;4953944;29;20107;-78
2021/11/04 01:40:55;;;;;;;12.88;5.18;;;;;;;6.46;100.00;97488.91;4954800;28;20147;-79
2021/11/04 01:43:21;;;;;;;7.60;5.05;;;;;;;6.50;100.00;97473.97;4969282;28;20046;-79
2021/11/04 01:45:49;;;;;;;7.15;4.93;;;;;;;6.49;100.00;97466.06;4963594;28;20082;-78
2021/11/04 01:48:16;;;;;;;7.05;4.40;;;;;;;6.41;100.00;97471.63;4953901;29;20107;-78
2021/11/04 01:50:43;;;;;;;6.82;4.57;;;;;;;6.37;100.00;97461.22;4952268;28;20047;-78
2021/11/04 01:53:10;;;;;;;6.10;4.65;;;;;;;6.30;100.00;97441.47;4952323;28;20134;-78
2021/11/04 01:55:36;;;;;;;12.82;4.10;;;;;;;6.30;100.00;97441.47;4965627;28;20049;-79
2021/11/04 01:58:05;;;;;;;5.82;4.13;;;;;;;6.35;100.00;97448.97;4973046;28;20554;-78
2021/11/04 02:00:34;;;;;;;6.72;4.97;;;;;;;6.31;100.00;97453.13;4958554;28;20051;-78
2021/11/04 02:03:05;;;;;;;6.68;4.32;;;;;;;6.12;100.00;97458.19;4955183;28;20078;-78
2021/11/04 02:05:39;;;;;;;3.72;2.88;;;;;;;6.00;100.00;97462.47;4963122;28;20043;-78
2021/11/04 02:08:13;;;;;;;3.17;2.30;;;;;;;5.82;100.00;97458.34;4953423;29;20051;-79
2021/11/04 02:10:45;;;;;;;5.65;2.30;;;;;;;5.65;100.00;97463.22;4952896;29;20090;-78
2021/11/04 02:13:18;;;;;;;1.95;1.70;;;;;;;5.69;100.00;97482.56;4947707;28;20087;-79
2021/11/04 02:15:49;;;;;;;1.48;1.35;;;;;;;5.49;100.00;97464.34;4969214;28;20105;-79
2021/11/04 02:18:18;;;;;;;2.08;1.50;;;;;;;5.48;100.00;97486.94;4956693;28;20103;-79
2021/11/04 02:20:58;;;;;;;4.47;1.10;;;;;;;5.36;100.00;97493.88;4953961;28;20055;-79
2021/11/04 02:23:33;;;;;;;3.75;1.17;;;;;;;5.37;100.00;97487.44;4957658;28;20040;-79
2021/11/04 02:26:03;;;;;;;2.20;1.13;;;;;;;5.25;100.00;97507.84;4962003;28;20472;-79
2021/11/04 02:28:30;;;;;;;1.10;0.77;;;;;;;5.09;100.00;97507.06;4970763;28;20098;-79
2021/11/04 02:30:57;;;;;;;3.25;2.15;;;;;;;5.19;100.00;97504.03;4956952;29;20066;-78
2021/11/04 02:33:25;;;;;;;1.92;1.25;;;;;;;5.17;100.00;97510.66;4954990;29;20043;-79
2021/11/04 02:35:53;;;;;;;1.40;1.30;;;;;;;5.20;100.00;97521.88;4964323;28;20062;-80
2021/11/04 02:38:22;;;;;;;2.15;1.50;;;;;;;5.08;100.00;97515.34;4976436;28;20058;-79
2021/11/04 02:40:52;;;;;;;1.52;1.35;;;;;;;5.07;100.00;97516.34;4956518;28;20051;-79
2021/11/04 02:43:21;;;;;;;2.45;1.75;;;;;;;5.08;100.00;97542.28;4974245;28;20528;-79
2021/11/04 02:45:48;;;;;;;2.08;1.48;;;;;;;5.08;100.00;97537.72;4966047;28;20043;-79
2021/11/04 02:48:16;;;;;;;2.00;1.80;;;;;;;5.19;100.00;97546.31;4956773;29;20048;-79
2021/11/04 02:50:45;;;;;;;1.80;1.50;;;;;;;5.18;100.00;97544.66;4954572;29;20140;-79
2021/11/04 02:53:14;;;;;;;2.00;1.50;;;;;;;5.13;100.00;97529.91;4957623;28;20047;-79
2021/11/04 02:55:42;;;;;;;2.53;1.60;;;;;;;5.14;100.00;97547.72;4952449;28;20055;-79
2021/11/04 02:58:13;;;;;;;2.13;1.70;;;;;;;5.10;100.00;97545.59;4959904;28;20043;-79
2021/11/04 03:00:44;;;;;;;2.97;2.20;;;;;;;5.07;100.00;97535.19;4958026;28;20488;-79
2021/11/04 03:03:11;;;;;;;3.17;2.22;;;;;;;5.20;100.00;97538.06;4955992;28;20095;-79
2021/11/04 03:05:38;;;;;;;4.38;1.80;;;;;;;5.12;100.00;97544.41;4962246;28;20562;-79
2021/11/04 03:08:05;;;;;;;2.63;1.73;;;;;;;5.26;100.00;97542.66;4964618;28;20448;-79
2021/11/04 03:10:32;;;;;;;3.40;2.55;;;;;;;5.12;100.00;97546.25;4974457;28;20109;-79
2021/11/04 03:12:59;;;;;;;4.13;2.00;;;;;;;5.17;100.00;97557.28;4966173;28;20083;-79
2021/11/04 03:15:29;;;;;;;2.67;2.22;;;;;;;4.94;100.00;97549.38;4971935;28;20093;-79
2021/11/04 03:17:58;;;;;;;3.70;2.35;;;;;;;5.09;100.00;97560.13;4974945;28;20051;-79
2021/11/04 03:20:25;;;;;;;3.28;2.85;;;;;;;5.13;100.00;97558.69;4965272;28;20118;-79
2021/11/04 03:22:53;;;;;;;2.80;2.00;;;;;;;5.11;100.00;97555.34;4954292;28;20130;-79
2021/11/04 03:25:21;;;;;;;3.25;2.15;;;;;;;5.06;100.00;97560.47;4957769;28;20051;-80
2021/11/04 03:27:51;;;;;;;3.42;2.42;;;;;;;5.02;100.00;97551.13;4969106;28;20443;-79
2021/11/04 03:30:23;;;;;;;5.68;2.42;;;;;;;5.13;100.00;97559.53;4975271;28;20046;-79
2021/11/04 03:32:52;;;;;;;3.58;2.53;;;;;;;5.13;100.00;97562.25;4960635;28;20048;-80
2021/11/04 03:35:21;;;;;;;3.50;2.42;;;;;;;5.00;100.00;97555.84;4955832;29;20047;-79
2021/11/04 03:37:50;;;;;;;4.53;2.47;;;;;;;4.95;100.00;97562.66;4955883;29;20103;-79
2021/11/04 03:40:17;;;;;;;3.42;2.53;;;;;;;5.03;100.00;97559.00;4954907;29;20051;-79
2021/11/04 03:42:45;;;;;;;3.33;2.60;;;;;;;4.97;100.00;97557.88;4956980;28;20532;-79
2021/11/04 03:45:14;;;;;;;3.58;2.35;;;;;;;4.96;100.00;97556.22;4972215;28;20463;-79
2021/11/04 03:47:42;;;;;;;10.18;3.15;;;;;;;4.94;100.00;97538.59;4964738;28;20051;-79
2021/11/04 03:50:12;;;;;;;3.28;2.80;;;;;;;5.03;100.00;97540.16;4955653;29;20047;-79
2021/11/04 03:52:42;;;;;;;4.53;2.90;;;;;;;5.05;100.00;97542.66;4955026;29;20055;-79
2021/11/04 03:55:12;;;;;;;3.67;2.40;;;;;;;5.11;100.00;97540.03;4955619;29;20102;-79
2021/11/04 03:57:41;;;;;;;4.00;2.65;;;;;;;5.00;100.00;97540.53;4954284;28;20568;-79
2021/11/04 04:00:12;;;;;;;4.43;3.28;;;;;;;5.00;100.00;97529.75;4938658;28;20051;-79
2021/11/04 04:02:39;;;;;;;7.40;3.55;;;;;;;4.92;100.00;97522.63;4953565;29;20043;-79
2021/11/04 04:05:07;;;;;;;4.82;3.13;;;;;;;4.88;100.00;97525.88;4955126;29;20087;-79
2021/11/04 04:07:34;;;;;;;3.75;2.90;;;;;;;4.93;100.00;97515.38;4954221;28;20051;-79
2021/11/04 04:10:02;;;;;;;6.38;2.50;;;;;;;4.94;100.00;97517.06;4963185;28;20444;-79
2021/11/04 04:12:29;;;;;;;3.88;2.90;;;;;;;5.00;100.00;97527.06;4954563;29;20062;-79
2021/11/04 04:14:56;;;;;;;3.95;2.88;;;;;;;4.88;100.00;97515.13;4955190;29;20464;-78
2021/11/04 04:17:23;;;;;;;3.75;2.53;;;;;;;4.89;100.00;97524.84;4954819;29;20105;-79
2021/11/04 04:19:53;;;;;;;4.18;3.05;;;;;;;4.94;100.00;97528.66;4955095;29;20055;-78
2021/11/04 04:22:20;;;;;;;2.55;2.20;;;;;;;4.89;100.00;97524.84;4954683;29;20055;-79
2021/11/04 04:24:47;;;;;;;4.93;3.30;;;;;;;4.92;100.00;97535.22;4953655;28;20054;-79
2021/11/04 04:27:15;;;;;;;7.53;3.13;;;;;;;4.89;100.00;97543.69;4954772;29;20467;-79
2021/11/04 04:29:42;;;;;;;5.00;3.47;;;;;;;4.92;100.00;97532.53;4957061;28;20048;-79
2021/11/04 04:32:09;;;;;;;5.38;2.92;;;;;;;4.87;100.00;97541.19;4954453;29;20051;-80
2021/11/04 04:34:42;;;;;;;4.13;2.53;;;;;;;4.89;100.00;97543.69;4953348;29;20047;-79
2021/11/04 04:37:20;;;;;;;5.53;2.88;;;;;;;4.87;100.00;97556.53;4954388;29;20066;-80
2021/11/04 04:39:47;;;;;;;3.17;2.50;;;;;;;4.85;100.00;97555.84;4948837;29;20047;-80
2021/11/04 04:42:15;;;;;;;4.25;3.05;;;;;;;4.72;100.00;97537.69;4953932;29;20055;-80
2021/11/04 04:44:42;;;;;;;3.03;2.30;;;;;;;4.87;100.00;97560.03;4954375;28;20067;-79
2021/11/04 04:47:09;;;;;;;3.38;2.53;;;;;;;4.93;100.00;97570.06;4953338;28;20099;-79
2021/11/04 04:49:36;;;;;;;4.82;3.05;;;;;;;4.91;100.00;97563.22;4953931;28;20114;-80
2021/11/04 04:52:03;;;;;;;4.20;3.00;;;;;;;4.87;100.00;97568.13;4959282;28;20090;-79
2021/11/04 04:54:30;;;;;;;4.40;3.30;;;;;;;4.87;100.00;97561.91;4962157;28;20491;-80
2021/11/04 04:56:56;;;;;;;4.82;3.53;;;;;;;4.83;100.00;97569.50;4954878;29;20058;-80
2021/11/04 04:59:25;;;;;;;5.03;3.20;;;;;;;4.77;100.00;97571.13;4954066;28;20514;-80
2021/11/04 05:01:51;;;;;;;7.03;3.50;;;;;;;4.85;100.00;97590.84;4954152;29;20051;-80
2021/11/04 05:04:18;;;;;;;4.72;3.20;;;;;;;4.68;100.00;97569.53;4954283;28;20047;-79
2021/11/04 05:06:45;;;;;;;4.45;3.05;;;;;;;4.81;100.00;97589.59;4972974;28;20055;-79
2021/11/04 05:09:11;;;;;;;3.28;2.92;;;;;;;4.78;100.00;97591.59;4972714;28;20290;-79
2021/11/04 05:11:38;;;;;;;4.38;3.30;;;;;;;4.77;100.00;97598.03;4954066;29;20047;-80
2021/11/04 05:14:05;;;;;;;5.32;3.25;;;;;;;4.74;100.00;97597.56;4952697;29;20562;-80
2021/11/04 05:16:33;;;;;;;4.85;3.30;;;;;;;4.68;100.00;97583.00;4966317;28;20047;-79
2021/11/04 05:19:01;;;;;;;4.93;3.38;;;;;;;4.76;100.00;97599.03;4968058;28;20099;-80
2021/11/04 05:21:28;;;;;;;5.45;3.67;;;;;;;4.69;100.00;97594.59;4953938;29;20051;-80
2021/11/04 05:23:55;;;;;;;5.25;3.30;;;;;;;4.61;100.00;97590.16;4959578;28;20054;-79
2021/11/04 05:26:22;;;;;;;4.65;3.55;;;;;;;4.68;100.00;97609.94;4963241;28;20047;-80
2021/11/04 05:28:49;;;;;;;5.32;3.83;;;;;;;4.77;100.00;97613.34;4954924;28;20047;-79
2021/11/04 05:31:15;;;;;;;7.78;3.90;;;;;;;4.78;100.00;97620.41;4959155;28;20055;-79
2021/11/04 05:33:43;;;;;;;4.30;3.28;;;;;;;4.63;100.00;97606.09;4955554;28;20491;-79
2021/11/04 05:36:10;;;;;;;4.60;3.40;;;;;;;4.66;100.00;97619.19;4958876;28;20055;-79
2021/11/04 05:38:37;;;;;;;8.38;4.18;;;;;;;4.68;100.00;97607.22;4956283;28;20055;-80
2021/11/04 05:41:04;;;;;;;6.50;4.90;;;;;;;4.79;100.00;97622.09;4963013;28;20102;-79
2021/11/04 05:43:31;;;;;;;6.57;4.40;;;;;;;4.71;100.00;97608.69;4954144;28;20047;-80
2021/11/04 05:45:57;;;;;;;6.13;4.40;;;;;;;4.81;100.00;97629.97;4966861;28;20047;-80
2021/11/04 05:48:24;;;;;;;6.95;4.15;;;;;;;4.75;100.00;97624.28;4973088;28;20483;-80
2021/11/04 05:50:52;;;;;;;5.18;3.88;;;;;;;4.70;100.00;97623.19;4966588;28;20055;-80
2021/11/04 05:53:19;;;;;;;11.63;4.20;;;;;;;4.81;100.00;97638.88;4954886;28;20452;-79
2021/11/04 05:55:48;;;;;;;6.22;4.13;;;;;;;4.72;100.00;97640.81;4957076;28;20061;-79
2021/11/04 05:58:15;;;;;;;5.33;3.73;;;;;;;4.67;100.00;97632.47;4960794;28;20536;-80
2021/11/04 06:00:42;;;;;;;4.85;4.03;;;;;;;4.73;100.00;97644.38;4958962;28;20055;-80
2021/11/04 06:03:11;;;;;;;4.75;3.80;;;;;;;4.80;100.00;97645.28;4956158;28;20043;-79
2021/11/04 06:05:38;;;;;;;5.72;4.18;;;;;;;4.77;100.00;97651.03;4955984;29;20132;-80
2021/11/04 06:08:06;;;;;;;7.28;4.00;;;;;;;4.69;100.00;97648.44;4965624;28;20399;-80
2021/11/04 06:10:34;;;;;;;5.80;3.83;;;;;;;4.78;100.00;97663.47;4950851;28;20043;-80
2021/11/04 06:13:01;;;;;;;5.93;3.97;;;;;;;4.87;100.00;97667.75;4957698;28;20058;-79
2021/11/04 06:15:28;;;;;;;6.35;4.00;;;;;;;4.76;100.00;97660.97;4958831;29;20051;-80
2021/11/04 06:17:54;;;;;;;6.65;4.20;;;;;;;4.79;100.00;97676.75;4957242;29;20054;-79
2021/11/04 06:20:21;;;;;;;5.90;4.15;;;;;;;4.81;100.00;97679.25;4954119;29;20121;-80
2021/11/04 06:22:48;;;;;;;6.88;4.40;;;;;;;4.79;100.00;97682.13;4957852;28;20078;-80
2021/11/04 06:25:16;;;;;;;6.20;3.85;;;;;;;4.76;100.00;97677.13;4957236;28;20123;-80
2021/11/04 06:27:43;;;;;;;5.68;4.28;;;;;;;4.82;100.00;97685.47;4957214;29;20047;-80
2021/11/04 06:30:11;;;;;;;6.97;4.93;;;;;;;4.82;100.00;97680.94;4960369;28;20055;-80
2021/11/04 06:32:38;;;;;;;6.28;4.85;;;;;;;4.84;100.00;97683.44;4956122;29;20107;-79
2021/11/04 06:35:07;;;;;;;6.10;4.35;;;;;;;4.90;100.00;97690.78;4955164;29;20051;-80
2021/11/04 06:37:35;;;;;;;6.68;4.05;;;;;;;4.84;100.00;97691.53;4968539;28;20167;-80
2021/11/04 06:40:02;;;;;;;6.65;4.28;;;;;;;4.91;100.00;97693.28;4964384;28;20436;-80
2021/11/04 06:42:30;;;;;;;7.05;4.75;;;;;;;4.79;100.00;97695.59;4956513;29;20407;-80
2021/11/04 06:44:57;;;;;;;6.32;4.25;;;;;;;4.84;100.00;97699.59;4956566;29;20457;-80
2021/11/04 06:47:28;;;;;;;8.10;4.22;;;;;;;4.80;100.00;97693.75;4956028;29;20147;-80
2021/11/04 06:49:58;;;;;;;5.38;4.00;;;;;;;4.80;100.00;97704.50;4955951;29;20051;-80
2021/11/04 06:52:26;;;;;;;8.98;4.07;;;;;;;4.83;100.00;97709.53;4963360;28;20046;-80
2021/11/04 06:54:55;;;;;;;6.80;4.47;;;;;;;4.97;100.00;97714.09;4967730;28;20408;-79
2021/11/04 06:57:25;;;;;;;5.18;3.83;;;;;;;4.90;100.00;97713.16;4955544;28;20484;-79
2021/11/04 06:59:57;;;;;;;6.78;4.47;;;;;;;4.93;100.00;97718.16;4955379;28;20046;-79
2021/11/04 07:02:32;;;;;;;4.80;4.03;;;;;;;4.84;100.00;97715.75;4938691;29;23523;-79
2021/11/04 07:04:59;;;;;;;6.95;5.13;;;;;;;4.81;100.00;97716.97;4956446;28;20051;-79
2021/11/04 07:07:27;;;;;;;14.80;8.27;;;;;;;4.87;100.00;97724.31;4954139;28;20058;-80
2021/11/04 07:09:53;;;;;;;6.13;4.60;;;;;;;4.71;100.00;97701.09;4954537;29;20110;-79
2021/11/04 07:12:20;;;;;;;7.38;5.13;;;;;;;4.89;100.00;97724.13;4957748;28;20055;-80
2021/11/04 07:14:47;;;;;;;7.85;5.15;;;;;;;4.89;100.00;97732.19;4965715;28;20110;-79
2021/11/04 07:17:16;;;;;;;5.75;4.18;;;;;;;4.93;100.00;97745.09;4963916;28;20564;-79
2021/11/04 07:19:47;;;;;;;5.85;4.05;;;;;;;4.93;100.00;97734.34;4960988;28;20570;-79
2021/11/04 07:22:22;;;;;;;5.45;3.83;;;;;;;4.95;100.00;97753.84;4960576;28;20142;-80
2021/11/04 07:24:57;;;;;;;5.90;3.40;;;;;;;4.96;100.00;97752.81;4956233;28;20082;-80
2021/11/04 07:27:33;;;;;;;6.30;3.53;;;;;;;5.07;100.00;97764.16;4947649;28;20096;-80
2021/11/04 07:30:02;;;;;;;3.75;2.78;;;;;;;5.08;100.00;97761.28;4975399;28;20050;-79
2021/11/04 07:32:32;;;;;;;4.75;3.10;;;;;;;4.96;100.00;97766.28;4968492;28;20101;-79
2021/11/04 07:34:59;;;;;;;4.43;3.33;;;;;;;5.07;100.00;97759.63;4959855;28;20464;-79
2021/11/04 07:37:30;;;;;;;5.95;3.40;;;;;;;5.02;100.00;97766.59;4955749;29;20574;-80
2021/11/04 07:39:58;;;;;;;4.97;3.00;;;;;;;5.02;100.00;97762.03;4961420;28;20077;-79
2021/11/04 07:42:24;;;;;;;4.55;3.47;;;;;;;5.07;100.00;97766.84;4955752;29;20043;-79
2021/11/04 07:44:51;;;;;;;5.72;2.70;;;;;;;5.12;100.00;97788.72;4954292;29;20051;-79
2021/11/04 07:47:18;;;;;;;4.38;2.85;;;;;;;4.95;100.00;97774.53;4955532;28;20054;-80
2021/11/04 07:49:46;;;;;;;4.82;3.10;;;;;;;5.06;100.00;97790.28;4965706;28;20050;-79
2021/11/04 07:52:13;;;;;;;5.38;2.78;;;;;;;5.04;100.00;97783.38;4965987;28;20051;-79
2021/11/04 07:54:39;;;;;;;3.67;2.67;;;;;;;4.98;100.00;97793.03;4963250;28;20104;-79
2021/11/04 07:57:06;;;;;;;4.80;3.03;;;;;;;4.90;100.00;97775.09;4973580;28;20054;-80
2021/11/04 07:59:33;;;;;;;5.32;3.03;;;;;;;5.09;100.00;97789.91;4955014;28;20071;-80
2021/11/04 08:02:01;;;;;;;8.43;3.15;;;;;;;5.04;100.00;97792.28;4968550;28;20082;-80
2021/11/04 08:04:28;;;;;;;5.47;2.65;;;;;;;5.07;100.00;97796.50;4960561;28;20055;-80
2021/11/04 08:06:56;;;;;;;4.47;2.80;;;;;;;5.08;100.00;97790.91;4955215;29;20111;-79
2021/11/04 08:09:24;;;;;;;3.33;2.80;;;;;;;4.95;100.00;97788.88;4955371;29;20051;-79
2021/11/04 08:11:50;;;;;;;3.58;2.53;;;;;;;4.94;100.00;97803.34;4954892;29;20305;-80
2021/11/04 08:14:17;;;;;;;5.15;2.58;;;;;;;4.84;100.00;97805.44;4955305;29;20098;-80
2021/11/04 08:16:44;;;;;;;3.42;2.47;;;;;;;4.86;100.00;97808.78;4954970;29;20051;-80
2021/11/04 08:19:12;;;;;;;4.03;2.33;;;;;;;4.84;100.00;97805.44;4952974;28;20051;-80
2021/11/04 08:21:38;;;;;;;3.95;2.78;;;;;;;4.86;100.00;97813.34;4951232;29;20048;-80
2021/11/04 08:24:12;;;;;;;4.10;3.05;;;;;;;4.91;100.00;97817.19;4955290;29;20475;-80
2021/11/04 08:26:39;;;;;;;6.20;3.67;;;;;;;4.93;100.00;97814.31;4955015;29;20091;-80
2021/11/04 08:29:06;;;;;;;6.53;3.78;;;;;;;4.98;100.00;97825.34;4961697;28;20051;-79
2021/11/04 08:31:33;;;;;;;5.20;3.60;;;;;;;4.92;100.00;97815.31;4962346;28;20111;-79
2021/11/04 08:34:00;;;;;;;5.15;3.67;;;;;;;5.00;100.00;97826.03;4953176;28;20047;-79
2021/11/04 08:36:26;;;;;;;5.85;4.28;;;;;;;4.91;100.00;97816.34;4957853;28;20051;-79
2021/11/04 08:38:53;;;;;;;6.68;4.20;;;;;;;4.87;100.00;97817.72;4961218;28;20070;-79
2021/11/04 08:41:21;;;;;;;7.47;5.03;;;;;;;4.92;100.00;97815.31;4967425;28;20103;-79
2021/11/04 08:43:48;;;;;;;6.70;4.07;;;;;;;4.96;100.00;97830.09;4971854;28;20150;-79
2021/11/04 08:46:15;;;;;;;8.35;5.50;;;;;;;4.98;100.00;97836.13;4954961;29;20044;-79
2021/11/04 08:48:42;;;;;;;8.60;6.07;;;;;;;4.90;100.00;97828.13;4954719;29;20055;-79
2021/11/04 08:51:08;;;;;;;8.60;5.97;;;;;;;4.86;100.00;97827.63;4954524;29;20047;-79
2021/11/04 08:53:35;;;;;;;10.27;6.78;;;;;;;4.96;100.00;97830.09;4953623;28;20047;-79
2021/11/04 08:56:03;;;;;;;9.07;6.13;;;;;;;5.13;100.00;97846.94;4954162;29;20063;-79
2021/11/04 08:58:31;;;;;;;8.75;5.63;;;;;;;4.98;100.00;97836.13;4953238;29;20055;-79
2021/11/04 09:01:03;;;;;;;9.43;6.13;;;;;;;5.09;100.00;97851.88;4953241;29;20047;-78
2021/11/04 09:03:29;;;;;;;10.60;6.07;;;;;;;5.05;100.00;97852.41;4954053;29;20062;-79
2021/11/04 09:05:57;;;;;;;11.15;5.78;;;;;;;4.88;100.00;97832.88;4954236;29;20047;-79
2021/11/04 09:08:25;;;;;;;10.88;6.18;;;;;;;5.13;100.00;97853.19;4954210;29;20471;-79
2021/11/04 09:10:52;;;;;;;11.80;6.43;;;;;;;5.13;100.00;97844.25;4954104;29;20527;-79
2021/11/04 09:13:19;;;;;;;10.18;6.72;;;;;;;5.16;100.00;97845.75;4935355;29;20575;-79
2021/11/04 09:15:48;;;;;;;11.30;6.95;;;;;;;5.17;100.00;97864.41;4946161;29;20475;-79
2021/11/04 09:18:15;;;;;;;9.00;5.93;;;;;;;5.17;100.00;97856.34;4954383;29;20518;-79
2021/11/04 09:20:41;;;;;;;7.53;5.15;;;;;;;5.20;100.00;97871.31;4939654;29;20052;-79
2021/11/04 09:23:08;;;;;;;10.27;5.47;;;;;;;5.27;100.00;97866.88;4934751;29;20047;-79
2021/11/04 09:25:36;;;;;;;9.27;5.05;;;;;;;5.22;100.00;97874.66;4934719;29;20496;-79
2021/11/04 09:28:04;;;;;;;8.07;5.10;;;;;;;5.26;100.00;97887.56;4935516;29;20131;-79
2021/11/04 09:30:31;;;;;;;7.35;5.10;;;;;;;5.20;100.00;97882.09;4940892;28;20101;-79
2021/11/04 09:32:59;;;;;;;8.88;5.25;;;;;;;5.22;100.00;97882.72;4951622;29;20062;-79
2021/11/04 09:35:26;;;;;;;7.85;4.93;;;;;;;5.25;100.00;97879.66;4945520;29;20121;-79
2021/11/04 09:37:53;;;;;;;8.13;4.93;;;;;;;5.36;100.00;97899.94;4943898;29;20473;-79
2021/11/04 09:40:21;;;;;;;7.78;4.80;;;;;;;5.36;100.00;97895.41;4935186;29;20050;-78
2021/11/04 09:42:50;;;;;;;7.07;4.43;;;;;;;5.40;100.00;97902.09;4950840;29;20065;-78
2021/11/04 09:45:17;;;;;;;5.97;4.40;;;;;;;5.41;100.00;97903.78;4953992;29;20063;-79
2021/11/04 09:47:44;;;;;;;9.60;4.65;;;;;;;5.44;100.00;97902.59;4953859;29;20055;-78
2021/11/04 09:50:15;;;;;;;6.32;4.07;;;;;;;5.41;100.00;97906.47;4953943;29;20122;-78
2021/11/04 09:52:46;;;;;;;7.25;3.78;;;;;;;5.42;100.00;97916.25;4951168;29;20047;-78
2021/11/04 09:55:18;;;;;;;5.07;4.32;;;;;;;5.46;100.00;97914.84;4949606;29;20088;-78
2021/11/04 09:57:45;;;;;;;4.88;3.45;;;;;;;5.50;100.00;97920.72;4934653;29;20056;-79
2021/11/04 10:00:14;;;;;;;4.80;3.20;;;;;;;5.31;100.00;97911.28;4948356;29;20051;-79
2021/11/04 10:02:43;;;;;;;5.00;3.70;;;;;;;5.57;100.00;97937.84;4953706;29;20407;-79
2021/11/04 10:05:14;;;;;;;4.63;3.45;;;;;;;5.49;100.00;97943.28;4954264;29;20059;-78
2021/11/04 10:07:43;;;;;;;7.70;3.72;;;;;;;5.49;100.00;97940.59;4953754;29;20094;-78
2021/11/04 10:10:10;;;;;;;5.22;3.70;;;;;;;5.54;100.00;97949.00;4950110;29;20043;-79
2021/11/04 10:12:56;;;;;;;7.00;3.90;;;;;;;5.54;100.00;97949.00;4943191;29;20043;-78
2021/11/04 10:15:23;;;;;;;4.65;3.25;;;;;;;5.54;100.00;97946.28;4954045;29;20051;-79
2021/11/04 10:17:50;;;;;;;4.95;3.38;;;;;;;5.53;100.00;97943.78;4938830;29;20051;-78
2021/11/04 10:20:20;;;;;;;4.28;3.53;;;;;;;5.52;100.00;97951.00;4934859;29;20060;-78
2021/11/04 10:23:00;;;;;;;4.93;3.80;;;;;;;5.58;100.00;97960.25;4934271;29;20047;-79
2021/11/04 10:25:28;;;;;;;4.90;3.10;;;;;;;5.37;100.00;97961.75;4934352;29;20086;-78
2021/11/04 10:27:59;;;;;;;9.88;3.97;;;;;;;5.54;100.00;97972.41;4942173;29;20043;-79
2021/11/04 10:30:41;;;;;;;5.97;3.45;;;;;;;5.48;100.00;97964.03;4938645;29;20155;-79
2021/11/04 10:33:20;;;;;;;7.00;4.03;;;;;;;5.59;100.00;97976.22;4937642;29;20110;-79
2021/11/04 10:39:03;;;;;;;7.20;4.43;;;;;;;5.62;100.00;97977.72;4943628;29;20442;-79
2021/11/04 10:41:41;;;;;;;10.90;5.57;;;;;;;5.55;100.00;97964.13;4953219;28;20400;-78
2021/11/04 10:44:09;;;;;;;9.02;5.20;;;;;;;5.50;100.00;97972.75;4946351;29;20051;-78
2021/11/04 10:47:02;;;;;;;9.57;4.78;;;;;;;5.52;100.00;97972.59;4956662;29;20060;-78
2021/11/04 10:49:41;;;;;;;10.00;5.80;;;;;;;5.67;100.00;97992.34;4943738;29;20063;-78
2021/11/04 10:52:10;;;;;;;11.02;6.38;;;;;;;5.69;100.00;97994.88;4938741;29;20051;-77
2021/11/04 10:54:40;;;;;;;12.85;7.18;;;;;;;5.70;100.00;98001.91;4937549;29;20063;-78
2021/11/04 10:57:07;;;;;;;14.63;7.60;;;;;;;5.82;100.00;98007.72;4937457;29;20091;-78
2021/11/04 10:59:41;;;;;;;15.82;8.60;;;;;;;5.72;100.00;97999.91;4943949;29;20212;-78
2021/11/04 11:02:08;;;;;;;19.27;9.70;;;;;;;5.82;100.00;98013.94;4953238;29;20055;-78
2021/11/04 11:05:05;;;;;;;15.95;8.40;;;;;;;5.67;100.00;98004.97;4956430;29;20054;-78
2021/11/04 11:08:00;;;;;;;20.70;9.32;;;;;;;5.66;100.00;98009.53;4938072;29;20484;-78
2021/11/04 11:11:05;;;;;;;18.42;10.07;;;;;;;5.75;100.00;98013.00;4937176;29;20139;-78
2021/11/04 11:14:24;;;;;;;17.95;10.10;;;;;;;5.87;100.00;98034.97;4936910;29;20052;-78
2021/11/04 11:17:12;;;;;;;23.80;11.93;;;;;;;5.75;100.00;98018.41;4937354;29;20142;-78
2021/11/04 11:19:43;;;;;;;24.23;13.32;;;;;;;5.75;100.00;98021.09;4938805;29;20059;-79
2021/11/04 11:22:12;;;;;;;28.85;13.82;;;;;;;5.80;100.00;98050.22;4936947;29;20047;-78
2021/11/04 11:24:41;;;;;;;23.73;13.10;;;;;;;5.73;100.00;98052.78;4937104;29;20131;-78
2021/11/04 11:27:34;;;;;;;25.45;12.75;;;;;;;5.64;100.00;98049.31;4937295;29;20103;-78
2021/11/04 11:37:21;;;;;;;23.30;12.23;;;;;;;5.71;100.00;98064.81;4908661;29;20050;-78
2021/11/04 11:43:13;;;;;;;19.30;11.57;;;;;;;5.58;100.00;98062.69;4936368;29;20131;-79
2021/11/04 11:45:43;;;;;;;23.35;11.90;;;;;;;5.65;100.00;98069.88;4936665;29;20059;-78
2021/11/04 12:02:52;;;;;;;32.65;12.68;;;;;;;5.48;100.00;98101.50;4934852;29;20066;-78
2021/11/04 12:05:40;;;;;;;25.58;14.05;;;;;;;5.51;100.00;98108.41;4936351;29;20428;-79
2021/11/04 12:08:35;;;;;;;26.58;14.82;;;;;;;5.45;100.00;98117.19;4948595;29;20138;-79